createdAt,value
2023-03-01T00:02:08.582Z,18.25
2023-03-01T00:04:36.723Z,15.25
2023-03-01T00:07:03.882Z,17.25
2023-03-01T00:09:31.108Z,15.77
2023-03-01T00:11:58.223Z,16.88
2023-03-01T00:14:25.340Z,14.43
2023-03-01T00:16:52.556Z,15.63
2023-03-01T00:19:20.901Z,19.35
2023-03-01T00:21:48.088Z,17.75
2023-03-01T00:24:15.305Z,15.80
2023-03-01T00:26:42.470Z,13.85
2023-03-01T00:29:09.558Z,17.40
2023-03-01T00:31:36.771Z,18.05
2023-03-01T00:34:05.549Z,20.48
2023-03-01T00:36:34.926Z,17.92
2023-03-01T00:39:02.634Z,19.73
2023-03-01T00:41:29.764Z,21.20
2023-03-01T00:43:57.055Z,19.60
2023-03-01T00:46:25.651Z,19.33
2023-03-01T00:48:52.837Z,20.80
2023-03-01T00:51:24.452Z,19.25
2023-03-01T00:53:52.650Z,20.02
2023-03-01T00:56:19.790Z,21.15
2023-03-01T00:58:46.911Z,21.92
2023-03-01T01:01:24.112Z,18.60
2023-03-01T01:03:52.843Z,21.88
2023-03-01T01:06:30.800Z,24.85
2023-03-01T01:08:58.462Z,20.45
2023-03-01T01:11:26.360Z,19.40
2023-03-01T01:13:54.009Z,18.50
2023-03-01T01:16:22.175Z,23.75
2023-03-01T01:18:49.709Z,23.90
2023-03-01T01:21:18.983Z,18.67
2023-03-01T01:23:46.678Z,25.33
2023-03-01T01:26:33.465Z,21.38
2023-03-01T01:29:01.324Z,21.23
2023-03-01T01:31:29.247Z,23.90
2023-03-01T01:33:56.725Z,20.20
2023-03-01T01:36:24.154Z,22.20
2023-03-01T01:38:51.347Z,20.92
2023-03-01T01:41:18.684Z,22.50
2023-03-01T01:43:47.403Z,19.15
2023-03-01T01:46:17.416Z,22.73
2023-03-01T01:48:49.752Z,19.38
2023-03-01T01:51:26.076Z,20.30
2023-03-01T01:53:55.883Z,24.92
2023-03-01T01:56:23.417Z,23.50
2023-03-01T01:58:51.351Z,22.55
2023-03-01T02:01:18.564Z,22.25
2023-03-01T02:03:48.151Z,22.83
2023-03-01T02:06:23.931Z,22.30
2023-03-01T02:08:54.167Z,23.13
2023-03-01T02:11:22.077Z,20.10
2023-03-01T02:13:49.567Z,19.20
2023-03-01T02:16:17.811Z,17.90
2023-03-01T02:18:45.535Z,21.35
2023-03-01T02:21:21.760Z,20.08
2023-03-01T02:23:49.116Z,21.77
2023-03-01T02:26:25.483Z,13.60
2023-03-01T02:28:52.835Z,20.60
2023-03-01T02:31:39.723Z,20.42
2023-03-01T02:34:06.946Z,21.55
2023-03-01T02:36:38.461Z,22.02
2023-03-01T02:39:07.239Z,22.25
2023-03-01T02:41:37.482Z,21.83
2023-03-01T02:44:05.260Z,21.42
2023-03-01T02:46:32.793Z,19.70
2023-03-01T02:49:00.637Z,25.08
2023-03-01T02:51:27.705Z,22.70
2023-03-01T02:53:54.836Z,19.45
2023-03-01T02:56:22.017Z,18.98
2023-03-01T02:58:52.504Z,25.25
2023-03-01T03:01:20.333Z,19.33
2023-03-01T03:03:47.514Z,20.90
2023-03-01T03:06:15.208Z,20.83
2023-03-01T03:08:42.456Z,19.77
2023-03-01T03:11:09.552Z,20.60
2023-03-01T03:13:36.644Z,21.83
2023-03-01T03:16:04.981Z,21.27
2023-03-01T03:18:32.126Z,22.52
2023-03-01T03:20:59.834Z,21.65
2023-03-01T03:23:27.061Z,21.23
2023-03-01T03:25:54.153Z,22.15
2023-03-01T03:28:21.298Z,22.92
2023-03-01T03:30:48.921Z,16.45
2023-03-01T03:33:16.025Z,19.65
2023-03-01T03:35:45.030Z,18.13
2023-03-01T03:38:16.740Z,22.60
2023-03-01T03:40:45.614Z,19.08
2023-03-01T03:43:14.315Z,19.92
2023-03-01T03:45:41.624Z,23.00
2023-03-01T03:48:12.872Z,21.25
2023-03-01T03:53:08.755Z,20.98
2023-03-01T03:55:39.999Z,30.10
2023-03-01T04:00:40.449Z,19.47
2023-03-01T04:03:07.883Z,19.95
2023-03-01T04:05:35.262Z,21.80
2023-03-01T04:08:02.330Z,21.58
2023-03-01T04:10:34.323Z,20.27
2023-03-01T04:13:01.468Z,21.17
2023-03-01T04:15:28.963Z,22.52
2023-03-01T04:17:56.942Z,15.20
2023-03-01T04:20:28.023Z,16.85
2023-03-01T04:22:59.454Z,21.88
2023-03-01T04:25:26.567Z,17.55
2023-03-01T04:27:53.876Z,20.40
2023-03-01T04:30:21.353Z,20.98
2023-03-01T04:32:48.441Z,23.90
2023-03-01T04:35:16.033Z,18.77
2023-03-01T04:37:43.135Z,20.45
2023-03-01T04:40:16.794Z,21.67
2023-03-01T04:42:44.236Z,23.85
2023-03-01T04:45:14.169Z,15.25
2023-03-01T04:47:42.246Z,20.77
2023-03-01T04:50:09.791Z,12.70
2023-03-01T04:52:37.362Z,22.00
2023-03-01T04:55:04.721Z,17.38
2023-03-01T04:57:32.880Z,17.42
2023-03-01T05:00:00.079Z,23.30
2023-03-01T05:02:27.303Z,22.08
2023-03-01T05:04:58.521Z,17.73
2023-03-01T05:07:27.311Z,21.38
2023-03-01T05:09:55.393Z,25.42
2023-03-01T05:12:22.547Z,17.73
2023-03-01T05:14:49.765Z,20.20
2023-03-01T05:17:16.845Z,23.58
2023-03-01T05:19:43.947Z,21.05
2023-03-01T05:22:11.103Z,19.45
2023-03-01T05:24:39.549Z,17.98
2023-03-01T05:27:07.271Z,20.65
2023-03-01T05:29:35.969Z,18.42
2023-03-01T05:32:03.809Z,21.63
2023-03-01T05:34:35.282Z,19.40
2023-03-01T05:37:02.653Z,19.40
2023-03-01T05:39:30.989Z,24.98
2023-03-01T05:41:59.400Z,18.42
2023-03-01T05:44:26.855Z,21.40
2023-03-01T05:46:54.157Z,17.73
2023-03-01T05:49:21.687Z,16.92
2023-03-01T05:51:50.232Z,20.63
2023-03-01T05:54:17.422Z,23.67
2023-03-01T05:56:44.786Z,22.30
2023-03-01T05:59:12.399Z,22.38
2023-03-01T06:01:39.504Z,21.85
2023-03-01T06:04:06.722Z,18.58
2023-03-01T06:06:38.502Z,22.55
2023-03-01T06:09:10.316Z,22.35
2023-03-01T06:11:38.159Z,19.35
2023-03-01T06:14:07.281Z,15.25
2023-03-01T06:16:34.433Z,22.48
2023-03-01T06:19:01.568Z,23.48
2023-03-01T06:21:28.683Z,21.10
2023-03-01T06:23:55.830Z,16.40
2023-03-01T06:26:23.086Z,22.85
2023-03-01T06:28:50.201Z,19.85
2023-03-01T06:31:17.366Z,19.83
2023-03-01T06:33:45.665Z,23.67
2023-03-01T06:36:12.873Z,22.88
2023-03-01T06:38:41.777Z,21.40
2023-03-01T06:41:08.977Z,21.77
2023-03-01T06:43:36.139Z,22.85
2023-03-01T06:46:06.347Z,21.45
2023-03-01T06:48:33.419Z,22.73
2023-03-01T06:51:01.662Z,26.80
2023-03-01T06:53:29.403Z,22.10
2023-03-01T06:56:01.207Z,29.50
2023-03-01T06:58:28.376Z,21.35
2023-03-01T07:00:55.622Z,29.05
2023-03-01T07:03:23.469Z,23.83
2023-03-01T07:05:53.324Z,20.73
2023-03-01T07:08:20.729Z,22.73
2023-03-01T07:10:47.904Z,34.25
2023-03-01T07:13:15.027Z,24.83
2023-03-01T07:15:42.428Z,21.70
2023-03-01T07:18:09.581Z,30.08
2023-03-01T07:20:36.714Z,25.42
2023-03-01T07:23:03.917Z,26.10
2023-03-01T07:25:31.054Z,23.95
2023-03-01T07:27:58.166Z,22.50
2023-03-01T07:30:27.172Z,21.52
2023-03-01T07:32:55.747Z,22.02
2023-03-01T07:35:23.823Z,22.17
2023-03-01T07:37:51.024Z,26.05
2023-03-01T07:40:18.255Z,22.20
2023-03-01T07:42:45.398Z,23.13
2023-03-01T07:45:14.441Z,20.50
2023-03-01T07:47:41.644Z,23.92
2023-03-01T07:50:09.104Z,23.10
2023-03-01T07:52:36.272Z,23.45
2023-03-01T07:55:03.370Z,23.15
2023-03-01T07:57:30.483Z,18.38
2023-03-01T07:59:57.647Z,22.60
2023-03-01T08:02:24.770Z,20.10
2023-03-01T08:04:51.919Z,20.50
2023-03-01T08:07:19.068Z,23.65
2023-03-01T08:09:46.132Z,21.42
2023-03-01T08:12:13.240Z,19.73
2023-03-01T08:14:40.399Z,21.88
2023-03-01T08:17:07.466Z,24.85
2023-03-01T08:19:35.676Z,24.75
2023-03-01T08:22:03.492Z,19.58
2023-03-01T08:24:30.685Z,21.38
2023-03-01T08:26:57.822Z,24.05
2023-03-01T08:29:25.777Z,25.75
2023-03-01T08:31:53.027Z,21.65
2023-03-01T08:34:20.510Z,23.75
2023-03-01T08:36:48.133Z,22.45
2023-03-01T08:39:17.324Z,25.63
2023-03-01T08:41:46.447Z,26.00
2023-03-01T08:44:17.690Z,28.23
2023-03-01T08:46:46.450Z,29.48
2023-03-01T08:49:17.597Z,22.85
2023-03-01T08:51:45.551Z,27.00
2023-03-01T08:54:15.834Z,26.10
2023-03-01T08:56:43.408Z,17.52
2023-03-01T08:59:11.804Z,23.05
2023-03-01T09:01:38.912Z,19.73
2023-03-01T09:04:06.188Z,22.90
2023-03-01T09:06:34.143Z,22.20
2023-03-01T09:09:01.793Z,21.83
2023-03-01T09:11:29.588Z,22.40
2023-03-01T09:13:57.071Z,23.08
2023-03-01T09:16:25.990Z,22.88
2023-03-01T09:18:54.319Z,25.88
2023-03-01T09:21:30.626Z,24.20
2023-03-01T09:24:06.195Z,25.17
2023-03-01T09:26:33.729Z,24.13
2023-03-01T09:29:01.097Z,22.33
2023-03-01T09:31:28.256Z,23.65
2023-03-01T09:33:55.865Z,23.17
2023-03-01T09:36:26.457Z,20.30
2023-03-01T09:38:54.269Z,25.58
2023-03-01T09:41:40.146Z,23.23
2023-03-01T09:44:25.789Z,19.60
2023-03-01T09:46:53.194Z,21.13
2023-03-01T09:49:22.996Z,25.73
2023-03-01T09:52:02.448Z,20.85
2023-03-01T09:54:29.698Z,24.42
2023-03-01T09:57:15.709Z,25.80
2023-03-01T10:00:12.394Z,25.27
2023-03-01T10:02:48.725Z,22.00
2023-03-01T10:05:21.761Z,20.00
2023-03-01T10:08:07.482Z,19.98
2023-03-01T10:10:36.018Z,22.83
2023-03-01T10:13:16.901Z,21.83
2023-03-01T10:15:57.157Z,18.80
2023-03-01T10:18:26.146Z,22.27
2023-03-01T10:21:01.078Z,22.83
2023-03-01T10:23:29.428Z,20.95
2023-03-01T10:26:02.768Z,19.85
2023-03-01T10:28:47.540Z,20.38
2023-03-01T10:31:16.391Z,21.05
2023-03-01T10:33:43.582Z,19.30
2023-03-01T10:36:11.062Z,19.48
2023-03-01T10:39:04.352Z,17.83
2023-03-01T10:41:31.949Z,17.88
2023-03-01T10:44:01.273Z,17.58
2023-03-01T10:46:32.708Z,17.60
2023-03-01T10:49:09.020Z,18.85
2023-03-01T10:51:36.267Z,18.48
2023-03-01T10:54:03.917Z,18.17
2023-03-01T10:56:46.916Z,15.80
2023-03-01T10:59:21.620Z,16.15
2023-03-01T11:02:05.182Z,16.40
2023-03-01T11:04:34.295Z,18.05
2023-03-01T11:07:02.567Z,16.70
2023-03-01T11:09:38.509Z,16.25
2023-03-01T11:12:07.176Z,20.85
2023-03-01T11:14:38.256Z,16.52
2023-03-01T11:17:06.945Z,15.65
2023-03-01T11:19:34.485Z,19.17
2023-03-01T11:22:04.600Z,18.80
2023-03-01T11:25:07.080Z,19.17
2023-03-01T11:27:40.215Z,19.35
2023-03-01T11:30:14.673Z,17.90
2023-03-01T11:32:44.359Z,19.83
2023-03-01T11:35:17.670Z,18.55
2023-03-01T11:38:00.736Z,18.63
2023-03-01T11:40:31.351Z,23.25
2023-03-01T11:43:01.317Z,19.85
2023-03-01T11:45:33.802Z,21.83
2023-03-01T11:48:03.719Z,14.18
2023-03-01T11:50:37.440Z,17.60
2023-03-01T11:53:19.735Z,21.15
2023-03-01T11:55:49.673Z,17.23
2023-03-01T11:58:27.953Z,18.90
2023-03-01T12:01:19.307Z,17.83
2023-03-01T12:04:05.476Z,21.02
2023-03-01T12:06:56.674Z,17.75
2023-03-01T12:09:30.467Z,16.45
2023-03-01T12:12:10.834Z,22.10
2023-03-01T12:14:51.707Z,19.17
2023-03-01T12:17:28.311Z,21.38
2023-03-01T12:20:15.493Z,18.50
2023-03-01T12:22:59.184Z,20.52
2023-03-01T12:25:43.370Z,25.75
2023-03-01T12:28:29.443Z,24.50
2023-03-01T12:31:29.246Z,20.52
2023-03-01T12:34:02.289Z,19.88
2023-03-01T12:36:32.900Z,20.38
2023-03-01T12:39:04.495Z,23.95
2023-03-01T12:44:08.476Z,22.52
2023-03-01T12:46:46.141Z,21.52
2023-03-01T12:49:18.626Z,21.67
2023-03-01T12:51:52.152Z,15.48
2023-03-01T12:54:26.430Z,18.88
2023-03-01T12:56:54.052Z,19.45
2023-03-01T12:59:28.763Z,21.40
2023-03-01T13:02:03.586Z,20.45
2023-03-01T13:04:46.197Z,20.45
2023-03-01T13:07:18.686Z,21.05
2023-03-01T13:09:55.066Z,22.35
2023-03-01T13:12:40.757Z,19.77
2023-03-01T13:15:26.159Z,24.38
2023-03-01T13:17:56.510Z,19.48
2023-03-01T13:20:35.098Z,22.38
2023-03-01T13:23:13.810Z,21.60
2023-03-01T13:25:58.905Z,21.85
2023-03-01T13:28:44.907Z,20.63
2023-03-01T13:31:21.409Z,26.55
2023-03-01T13:33:52.996Z,24.65
2023-03-01T13:36:33.675Z,24.45
2023-03-01T13:39:01.005Z,25.33
2023-03-01T13:41:40.227Z,31.65
2023-03-01T13:44:14.507Z,20.90
2023-03-01T13:46:41.944Z,32.25
2023-03-01T13:49:14.793Z,22.20
2023-03-01T13:51:42.040Z,31.75
2023-03-01T13:54:13.979Z,31.88
2023-03-01T13:56:41.534Z,28.70
2023-03-01T13:59:15.363Z,23.83
2023-03-01T14:01:43.896Z,27.27
2023-03-01T14:04:27.971Z,24.95
2023-03-01T14:07:30.430Z,27.23
2023-03-01T14:10:03.263Z,25.15
2023-03-01T14:12:49.186Z,23.45
2023-03-01T14:15:19.891Z,23.30
2023-03-01T14:17:47.044Z,21.08
2023-03-01T14:20:18.524Z,21.92
2023-03-01T14:22:46.502Z,20.73
2023-03-01T14:25:19.458Z,21.63
2023-03-01T14:27:52.543Z,22.52
2023-03-01T14:30:23.582Z,23.60
2023-03-01T14:32:54.631Z,22.48
2023-03-01T14:35:26.796Z,22.75
2023-03-01T14:37:54.145Z,24.55
2023-03-01T14:40:22.989Z,19.38
2023-03-01T14:42:50.154Z,23.73
2023-03-01T14:45:17.933Z,23.92
2023-03-01T14:47:46.293Z,23.10
2023-03-01T14:50:21.368Z,24.10
2023-03-01T14:52:50.183Z,23.38
2023-03-01T14:55:19.339Z,21.25
2023-03-01T14:57:48.398Z,26.77
2023-03-01T15:00:19.457Z,26.92
2023-03-01T15:02:47.752Z,28.38
2023-03-01T15:05:16.134Z,26.45
2023-03-01T15:07:49.928Z,32.75
2023-03-01T15:10:21.471Z,28.45
2023-03-01T15:15:35.809Z,29.15
2023-03-01T15:18:05.401Z,25.38
2023-03-01T15:20:36.324Z,25.38
2023-03-01T15:23:04.132Z,22.80
2023-03-01T15:25:31.996Z,44.17
2023-03-01T15:28:00.226Z,23.50
2023-03-01T15:30:38.429Z,27.77
2023-03-01T15:33:29.500Z,24.40
2023-03-01T15:36:01.542Z,28.50
2023-03-01T15:38:31.608Z,25.45
2023-03-01T15:40:59.422Z,28.17
2023-03-01T15:43:40.157Z,27.42
2023-03-01T15:46:07.277Z,31.10
2023-03-01T15:48:34.451Z,28.05
2023-03-01T15:51:02.583Z,25.85
2023-03-01T15:53:29.988Z,29.38
2023-03-01T15:55:57.110Z,29.58
2023-03-01T15:58:26.131Z,26.33
2023-03-01T16:01:01.157Z,21.40
2023-03-01T16:03:29.523Z,25.40
2023-03-01T16:05:56.766Z,28.05
2023-03-01T16:08:24.446Z,29.33
2023-03-01T16:10:52.586Z,32.10
2023-03-01T16:13:20.281Z,23.65
2023-03-01T16:15:47.486Z,30.70
2023-03-01T16:18:14.712Z,21.55
2023-03-01T16:20:42.132Z,23.50
2023-03-01T16:23:10.190Z,28.30
2023-03-01T16:25:38.529Z,21.05
2023-03-01T16:28:09.877Z,23.27
2023-03-01T16:30:38.136Z,20.80
2023-03-01T16:33:19.262Z,21.83
2023-03-01T16:35:52.637Z,17.05
2023-03-01T16:38:19.856Z,18.20
2023-03-01T16:40:51.065Z,19.33
2023-03-01T16:43:18.231Z,19.00
2023-03-01T16:45:48.743Z,20.65
2023-03-01T16:48:16.027Z,20.90
2023-03-01T16:50:43.110Z,20.10
2023-03-01T16:53:10.379Z,15.25
2023-03-01T16:55:38.801Z,21.40
2023-03-01T16:58:06.660Z,20.15
2023-03-01T17:00:33.900Z,17.55
2023-03-01T17:03:01.085Z,16.42
2023-03-01T17:05:28.566Z,17.92
2023-03-01T17:07:56.901Z,19.98
2023-03-01T17:10:24.059Z,20.80
2023-03-01T17:12:51.229Z,20.95
2023-03-01T17:15:18.490Z,19.92
2023-03-01T17:17:45.687Z,19.80
2023-03-01T17:20:13.262Z,20.63
2023-03-01T17:22:40.502Z,21.55
2023-03-01T17:25:09.145Z,21.77
2023-03-01T17:27:37.246Z,23.60
2023-03-01T17:30:05.176Z,21.88
2023-03-01T17:32:32.381Z,19.45
2023-03-01T17:34:59.502Z,21.52
2023-03-01T17:37:26.690Z,20.90
2023-03-01T17:39:53.842Z,23.83
2023-03-01T17:42:21.052Z,22.33
2023-03-01T17:44:48.598Z,22.83
2023-03-01T17:47:15.724Z,25.02
2023-03-01T17:49:44.064Z,20.88
2023-03-01T17:52:11.237Z,20.10
2023-03-01T17:54:38.382Z,21.02
2023-03-01T17:57:05.447Z,17.90
2023-03-01T17:59:34.090Z,18.85
2023-03-01T18:02:01.739Z,17.20
2023-03-01T18:04:29.295Z,19.48
2023-03-01T18:06:56.517Z,17.05
2023-03-01T18:09:23.773Z,18.90
2023-03-01T18:11:50.868Z,16.45
2023-03-01T18:14:18.148Z,14.85
2023-03-01T18:16:45.260Z,14.50
2023-03-01T18:19:12.986Z,15.40
2023-03-01T18:21:40.216Z,14.10
2023-03-01T18:24:07.430Z,13.65
2023-03-01T18:26:34.769Z,13.75
2023-03-01T18:29:04.413Z,18.05
2023-03-01T18:31:34.508Z,17.80
2023-03-01T18:34:01.933Z,17.83
2023-03-01T18:36:31.080Z,11.05
2023-03-01T18:38:58.372Z,16.27
2023-03-01T18:41:26.397Z,14.90
2023-03-01T18:43:54.128Z,13.35
2023-03-01T18:46:21.909Z,13.30
2023-03-01T18:48:49.196Z,13.70
2023-03-01T18:51:17.705Z,14.48
2023-03-01T18:53:44.935Z,11.88
2023-03-01T18:56:12.576Z,15.38
2023-03-01T18:58:39.869Z,12.68
2023-03-01T19:01:12.992Z,14.20
2023-03-01T19:03:40.213Z,12.68
2023-03-01T19:06:07.307Z,14.45
2023-03-01T19:08:34.590Z,15.07
2023-03-01T19:11:03.212Z,11.07
2023-03-01T19:13:30.902Z,12.70
2023-03-01T19:16:08.854Z,9.88
2023-03-01T19:18:36.616Z,9.57
2023-03-01T19:21:04.883Z,10.23
2023-03-01T19:23:35.132Z,13.40
2023-03-01T19:26:21.448Z,10.10
2023-03-01T19:28:49.094Z,11.68
2023-03-01T19:31:17.407Z,10.25
2023-03-01T19:33:44.610Z,11.50
2023-03-01T19:36:13.123Z,16.30
2023-03-01T19:38:41.253Z,12.50
2023-03-01T19:41:09.746Z,11.20
2023-03-01T19:43:36.960Z,13.90
2023-03-01T19:46:04.549Z,11.18
2023-03-01T19:48:31.686Z,15.30
2023-03-01T19:50:58.891Z,15.45
2023-03-01T19:53:26.043Z,17.83
2023-03-01T19:55:58.112Z,17.60
2023-03-01T19:58:25.263Z,15.85
2023-03-01T20:00:58.550Z,19.73
2023-03-01T20:03:26.577Z,16.90
2023-03-01T20:05:53.767Z,17.10
2023-03-01T20:08:21.133Z,14.88
2023-03-01T20:10:48.306Z,15.63
2023-03-01T20:13:15.541Z,12.85
2023-03-01T20:15:43.834Z,13.65
2023-03-01T20:18:11.824Z,15.20
2023-03-01T20:20:38.907Z,14.73
2023-03-01T20:23:06.028Z,19.88
2023-03-01T20:25:33.387Z,14.73
2023-03-01T20:28:00.505Z,14.07
2023-03-01T20:30:27.619Z,16.40
2023-03-01T20:32:54.800Z,13.20
2023-03-01T20:35:22.042Z,13.10
2023-03-01T20:37:51.477Z,17.15
2023-03-01T20:40:21.129Z,16.17
2023-03-01T20:42:48.262Z,16.55
2023-03-01T20:45:15.432Z,13.85
2023-03-01T20:47:42.617Z,14.27
2023-03-01T20:50:10.076Z,15.55
2023-03-01T20:52:47.164Z,12.13
2023-03-01T20:55:14.880Z,14.25
2023-03-01T20:57:42.128Z,12.32
2023-03-01T21:00:09.637Z,10.68
2023-03-01T21:02:38.812Z,16.15
2023-03-01T21:05:06.567Z,13.13
2023-03-01T21:07:33.675Z,18.05
2023-03-01T21:10:00.869Z,15.23
2023-03-01T21:12:27.950Z,15.52
2023-03-01T21:14:55.032Z,18.35
2023-03-01T21:17:22.207Z,19.83
2023-03-01T21:19:50.583Z,18.45
2023-03-01T21:22:17.717Z,18.33
2023-03-01T21:24:45.278Z,24.88
2023-03-01T21:27:12.486Z,19.27
2023-03-01T21:29:43.926Z,22.55
2023-03-01T21:32:11.816Z,17.02
2023-03-01T21:34:39.329Z,25.38
2023-03-01T21:37:07.770Z,21.98
2023-03-01T21:39:35.128Z,21.92
2023-03-01T21:42:05.141Z,19.70
2023-03-01T21:44:32.761Z,22.95
2023-03-01T21:46:59.928Z,17.40
2023-03-01T21:49:27.571Z,16.00
2023-03-01T21:51:54.698Z,17.08
2023-03-01T21:54:21.924Z,18.88
2023-03-01T21:56:49.400Z,20.83
2023-03-01T21:59:18.073Z,18.48
2023-03-01T22:01:45.655Z,20.20
2023-03-01T22:04:13.221Z,19.42
2023-03-01T22:06:42.419Z,19.08
2023-03-01T22:09:12.629Z,20.45
2023-03-01T22:11:40.615Z,20.33
2023-03-01T22:14:08.007Z,21.75
2023-03-01T22:16:36.161Z,19.17
2023-03-01T22:19:03.854Z,19.85
2023-03-01T22:21:30.944Z,19.98
2023-03-01T22:23:58.122Z,21.08
2023-03-01T22:26:25.179Z,20.73
2023-03-01T22:28:52.902Z,23.33
2023-03-01T22:31:20.197Z,23.00
2023-03-01T22:33:47.315Z,20.17
2023-03-01T22:36:14.437Z,16.83
2023-03-01T22:38:41.965Z,15.93
2023-03-01T22:41:09.120Z,14.77
2023-03-01T22:43:36.406Z,17.13
2023-03-01T22:46:21.474Z,15.90
2023-03-01T22:48:48.640Z,16.27
2023-03-01T22:51:20.648Z,15.82
2023-03-01T22:53:47.811Z,12.32
2023-03-01T22:56:16.316Z,14.93
2023-03-01T22:58:43.774Z,11.13
2023-03-01T23:01:11.735Z,12.75
2023-03-01T23:03:38.864Z,13.25
2023-03-01T23:06:05.999Z,17.65
2023-03-01T23:08:33.172Z,16.10
2023-03-01T23:11:00.275Z,12.15
2023-03-01T23:13:27.419Z,11.43
2023-03-01T23:15:57.920Z,16.00
2023-03-01T23:18:25.265Z,15.13
2023-03-01T23:20:52.464Z,10.35
2023-03-01T23:23:19.636Z,12.43
2023-03-01T23:25:53.732Z,14.07
2023-03-01T23:28:21.668Z,12.65
2023-03-01T23:30:59.308Z,12.18
2023-03-01T23:33:27.202Z,13.88
2023-03-01T23:35:54.779Z,14.73
2023-03-01T23:38:21.966Z,13.20
2023-03-01T23:40:49.271Z,9.82
2023-03-01T23:43:16.560Z,14.48
2023-03-01T23:45:44.070Z,9.68
2023-03-01T23:48:12.281Z,13.98
2023-03-01T23:50:43.142Z,11.15
2023-03-01T23:53:14.883Z,10.57
2023-03-01T23:55:45.299Z,13.32
2023-03-01T23:58:12.552Z,11.30
